createdAt,value
2018-11-27T00:00:36.456Z,3.50
2018-11-27T00:05:49.112Z,3.90
2018-11-27T00:08:20.007Z,4.17
2018-11-27T00:16:05.909Z,3.77
2018-11-27T00:18:36.912Z,3.20
2018-11-27T00:21:07.907Z,3.50
2018-11-27T00:23:38.277Z,3.13
2018-11-27T00:26:10.931Z,3.23
2018-11-27T00:28:42.077Z,3.03
2018-11-27T00:31:26.842Z,3.03
2018-11-27T00:34:01.229Z,2.87
2018-11-27T00:39:13.692Z,3.17
2018-11-27T00:41:44.476Z,3.43
2018-11-27T00:44:17.323Z,3.07
2018-11-27T00:46:47.562Z,3.10
2018-11-27T00:49:17.952Z,3.13
2018-11-27T00:51:48.337Z,3.00
2018-11-27T00:54:20.035Z,2.93
2018-11-27T00:56:50.773Z,3.13
2018-11-27T00:59:22.967Z,2.57
2018-11-27T01:01:53.252Z,2.97
2018-11-27T01:04:23.610Z,3.20
2018-11-27T01:06:53.975Z,2.77
2018-11-27T01:09:24.453Z,2.80
2018-11-27T01:11:54.777Z,3.00
2018-11-27T01:14:26.054Z,2.73
2018-11-27T01:16:56.836Z,2.90
2018-11-27T01:19:27.237Z,2.93
2018-11-27T01:21:58.412Z,2.80
2018-11-27T01:24:29.835Z,3.17
2018-11-27T01:27:00.161Z,3.53
2018-11-27T01:29:31.416Z,2.87
2018-11-27T01:32:03.512Z,2.63
2018-11-27T01:34:35.186Z,3.33
2018-11-27T01:37:06.609Z,2.67
2018-11-27T01:39:37.101Z,2.77
2018-11-27T01:42:07.321Z,2.90
2018-11-27T01:44:37.719Z,3.60
2018-11-27T01:47:08.412Z,3.07
2018-11-27T01:49:38.982Z,3.13
2018-11-27T01:52:09.477Z,3.40
2018-11-27T01:54:40.438Z,2.80
2018-11-27T01:57:10.901Z,3.57
2018-11-27T01:59:43.752Z,3.27
2018-11-27T02:02:14.302Z,3.73
2018-11-27T02:04:44.922Z,2.97
2018-11-27T02:07:15.357Z,2.70
2018-11-27T02:09:46.457Z,2.33
2018-11-27T02:12:16.692Z,3.50
2018-11-27T02:14:47.147Z,3.20
2018-11-27T02:17:17.367Z,2.67
2018-11-27T02:19:47.732Z,2.63
2018-11-27T02:22:18.552Z,2.77
2018-11-27T02:24:50.102Z,3.73
2018-11-27T02:27:20.332Z,3.57
2018-11-27T02:29:50.562Z,4.20
2018-11-27T02:32:21.698Z,3.93
2018-11-27T02:34:54.108Z,3.77
2018-11-27T02:37:25.053Z,3.43
2018-11-27T02:39:56.573Z,3.40
2018-11-27T02:42:28.146Z,3.40
2018-11-27T02:44:59.107Z,3.37
2018-11-27T02:47:29.939Z,3.20
2018-11-27T02:50:01.928Z,4.07
2018-11-27T02:52:35.050Z,3.60
2018-11-27T02:55:13.879Z,4.00
2018-11-27T02:57:45.343Z,3.87
2018-11-27T03:00:18.193Z,3.50
2018-11-27T03:02:53.530Z,3.77
2018-11-27T03:05:34.199Z,4.07
2018-11-27T03:08:04.742Z,3.90
2018-11-27T03:10:35.558Z,3.80
2018-11-27T03:13:06.247Z,3.67
2018-11-27T03:15:39.543Z,3.47
2018-11-27T03:18:14.193Z,3.97
2018-11-27T03:20:44.749Z,3.67
2018-11-27T03:23:15.953Z,3.77
2018-11-27T03:25:48.033Z,3.43
2018-11-27T03:28:18.598Z,3.60
2018-11-27T03:30:50.405Z,3.70
2018-11-27T03:33:21.038Z,3.53
2018-11-27T03:35:52.128Z,3.57
2018-11-27T03:38:24.763Z,3.70
2018-11-27T03:40:57.592Z,3.80
2018-11-27T03:43:29.412Z,4.50
2018-11-27T03:46:00.453Z,3.10
2018-11-27T03:48:33.033Z,3.70
2018-11-27T03:51:03.502Z,4.13
2018-11-27T03:53:34.982Z,3.80
2018-11-27T03:56:07.273Z,3.60
2018-11-27T03:58:41.422Z,3.43
2018-11-27T04:01:19.407Z,4.03
2018-11-27T04:03:54.268Z,3.90
2018-11-27T04:06:26.112Z,3.83
2018-11-27T04:08:58.048Z,4.10
2018-11-27T04:11:28.648Z,3.73
2018-11-27T04:14:00.228Z,4.10
2018-11-27T04:16:31.529Z,4.00
2018-11-27T04:19:01.813Z,4.67
2018-11-27T04:21:37.898Z,4.70
2018-11-27T04:24:08.907Z,5.27
2018-11-27T04:26:39.473Z,5.77
2018-11-27T04:29:12.143Z,5.47
2018-11-27T04:31:43.824Z,5.50
2018-11-27T04:34:14.068Z,5.40
2018-11-27T04:36:44.689Z,5.97
2018-11-27T04:39:16.459Z,6.17
2018-11-27T04:41:48.364Z,6.50
2018-11-27T04:44:20.014Z,6.80
2018-11-27T04:46:50.866Z,7.33
2018-11-27T04:49:21.083Z,6.60
2018-11-27T04:51:52.218Z,6.83
2018-11-27T04:54:22.681Z,6.63
2018-11-27T04:56:53.293Z,6.80
2018-11-27T04:59:27.743Z,7.17
2018-11-27T05:01:58.253Z,7.40
2018-11-27T05:04:29.883Z,7.97
2018-11-27T05:07:00.328Z,6.53
2018-11-27T05:09:32.338Z,7.83
2018-11-27T05:12:04.028Z,8.73
2018-11-27T05:14:35.093Z,8.63
2018-11-27T05:17:06.219Z,8.27
2018-11-27T05:19:37.592Z,8.00
2018-11-27T05:22:08.914Z,8.50
2018-11-27T05:24:40.698Z,9.17
2018-11-27T05:27:13.993Z,10.13
2018-11-27T05:29:44.567Z,10.70
2018-11-27T05:32:18.639Z,9.60
2018-11-27T05:34:51.258Z,9.30
2018-11-27T05:37:22.106Z,9.73
2018-11-27T05:39:52.647Z,9.53
2018-11-27T05:42:23.867Z,8.57
2018-11-27T05:44:55.168Z,9.20
2018-11-27T05:47:27.211Z,9.90
2018-11-27T05:49:58.153Z,8.80
2018-11-27T05:52:29.322Z,8.80
2018-11-27T05:55:01.953Z,8.47
2018-11-27T05:57:32.313Z,7.30
2018-11-27T06:00:04.432Z,7.30
2018-11-27T06:02:35.031Z,7.30
2018-11-27T06:05:05.672Z,6.20
2018-11-27T06:07:36.068Z,7.17
2018-11-27T06:10:10.182Z,7.23
2018-11-27T06:12:42.592Z,5.40
2018-11-27T06:15:15.410Z,6.30
2018-11-27T06:17:46.152Z,5.07
2018-11-27T06:20:20.692Z,4.80
2018-11-27T06:22:51.037Z,5.00
2018-11-27T06:25:23.149Z,5.47
2018-11-27T06:27:55.342Z,5.03
2018-11-27T06:30:26.779Z,4.93
2018-11-27T06:32:57.703Z,4.40
2018-11-27T06:35:30.405Z,3.90
2018-11-27T06:38:00.862Z,4.20
2018-11-27T06:40:32.122Z,3.70
2018-11-27T06:43:02.492Z,3.43
2018-11-27T06:45:33.318Z,3.83
2018-11-27T06:48:03.757Z,3.87
2018-11-27T06:50:35.274Z,4.03
2018-11-27T06:53:08.352Z,4.07
2018-11-27T06:55:39.287Z,3.30
2018-11-27T06:58:09.987Z,3.83
2018-11-27T07:00:41.287Z,3.90
2018-11-27T07:03:13.002Z,3.77
2018-11-27T07:05:43.232Z,2.90
2018-11-27T07:08:13.572Z,3.20
2018-11-27T07:10:46.507Z,3.80
2018-11-27T07:13:18.573Z,3.27
2018-11-27T07:15:52.162Z,3.60
2018-11-27T07:18:22.491Z,3.90
2018-11-27T07:20:53.474Z,3.10
2018-11-27T07:23:25.652Z,3.40
2018-11-27T07:25:57.602Z,3.57
2018-11-27T07:28:27.922Z,2.93
2018-11-27T07:30:58.257Z,3.07
2018-11-27T07:33:28.719Z,2.83
2018-11-27T07:36:00.096Z,2.97
2018-11-27T07:38:30.614Z,2.57
2018-11-27T07:41:01.853Z,2.43
2018-11-27T07:43:33.457Z,2.37
2018-11-27T07:46:04.452Z,2.43
2018-11-27T07:51:14.384Z,2.67
2018-11-27T07:53:45.557Z,2.77
2018-11-27T07:58:59.307Z,2.27
2018-11-27T08:01:29.782Z,2.50
2018-11-27T08:06:40.197Z,2.20
2018-11-27T08:09:11.587Z,2.10
2018-11-27T08:11:45.877Z,1.87
2018-11-27T08:14:16.258Z,1.73
2018-11-27T08:16:47.751Z,2.07
2018-11-27T08:19:20.212Z,2.00
2018-11-27T08:21:52.154Z,1.90
2018-11-27T08:24:24.655Z,3.27
2018-11-27T08:26:55.967Z,2.03
2018-11-27T08:29:26.432Z,2.17
2018-11-27T08:31:57.751Z,2.93
2018-11-27T08:34:29.752Z,2.80
2018-11-27T08:37:01.777Z,1.97
2018-11-27T08:39:32.252Z,2.00
2018-11-27T08:44:39.006Z,1.73
2018-11-27T08:47:09.681Z,1.57
2018-11-27T08:54:57.307Z,1.70
2018-11-27T08:57:27.732Z,1.70
2018-11-27T09:02:34.187Z,1.77
2018-11-27T09:05:06.407Z,1.67
2018-11-27T09:07:37.052Z,1.83
2018-11-27T09:10:19.717Z,1.57
2018-11-27T09:12:50.669Z,1.80
2018-11-27T09:15:22.291Z,1.50
2018-11-27T09:18:02.577Z,1.63
2018-11-27T09:20:33.377Z,1.70
2018-11-27T09:23:03.718Z,2.00
2018-11-27T09:25:37.457Z,2.07
2018-11-27T09:28:07.864Z,2.07
2018-11-27T09:30:43.445Z,1.93
2018-11-27T09:33:21.143Z,2.13
2018-11-27T09:41:15.803Z,1.97
2018-11-27T09:43:57.193Z,1.90
2018-11-27T09:51:59.053Z,2.20
2018-11-27T09:54:29.542Z,2.10
2018-11-27T09:57:03.748Z,1.90
2018-11-27T09:59:34.491Z,1.80
2018-11-27T10:07:34.098Z,1.37
2018-11-27T10:10:05.291Z,1.20
2018-11-27T10:12:37.253Z,1.00
2018-11-27T10:15:14.523Z,1.13
2018-11-27T10:17:46.188Z,1.10
2018-11-27T10:20:21.923Z,1.10
2018-11-27T10:22:53.242Z,1.20
2018-11-27T10:25:26.742Z,1.20
2018-11-27T10:27:59.117Z,1.07
2018-11-27T10:30:34.725Z,1.00
2018-11-27T10:33:08.479Z,1.30
2018-11-27T10:35:46.282Z,1.00
2018-11-27T10:38:18.338Z,1.40
2018-11-27T10:40:51.228Z,1.40
2018-11-27T10:43:22.113Z,1.40
2018-11-27T10:45:55.370Z,1.27
2018-11-27T10:48:26.373Z,1.70
2018-11-27T10:53:41.474Z,1.10
2018-11-27T10:56:12.423Z,1.07
2018-11-27T10:58:47.926Z,1.20
2018-11-27T11:01:24.178Z,1.13
2018-11-27T11:03:58.420Z,1.13
2018-11-27T11:06:28.828Z,1.23
2018-11-27T11:09:02.259Z,1.47
2018-11-27T11:11:32.858Z,1.20
2018-11-27T11:19:23.093Z,1.37
2018-11-27T11:21:53.488Z,1.37
2018-11-27T11:27:04.148Z,1.27
2018-11-27T11:29:34.802Z,1.50
2018-11-27T11:32:06.777Z,1.30
2018-11-27T11:34:38.708Z,0.97
2018-11-27T11:37:10.502Z,0.93
2018-11-27T11:39:42.243Z,1.40
2018-11-27T11:42:16.032Z,1.10
2018-11-27T11:44:46.625Z,1.43
2018-11-27T11:49:59.604Z,1.03
2018-11-27T11:52:35.048Z,0.90
2018-11-27T12:00:26.154Z,1.33
2018-11-27T12:02:56.482Z,1.20
2018-11-27T12:05:34.630Z,1.10
2018-11-27T12:08:06.030Z,1.40
2018-11-27T12:15:55.629Z,1.10
2018-11-27T12:18:26.225Z,0.97
2018-11-27T12:21:02.713Z,1.00
2018-11-27T12:23:43.003Z,1.10
2018-11-27T12:28:56.409Z,1.20
2018-11-27T12:31:26.962Z,1.00
2018-11-27T12:47:02.349Z,0.77
2018-11-27T12:49:32.782Z,0.70
2018-11-27T12:52:10.472Z,0.90
2018-11-27T12:54:52.617Z,0.97
2018-11-27T12:57:36.354Z,0.70
2018-11-27T13:00:17.857Z,0.77
2018-11-27T13:03:03.373Z,0.77
2018-11-27T13:05:45.193Z,0.80
2018-11-27T13:11:11.615Z,0.97
2018-11-27T13:13:43.203Z,1.23
2018-11-27T13:16:23.538Z,0.90
2018-11-27T13:18:54.213Z,1.10
2018-11-27T13:24:03.738Z,0.90
2018-11-27T13:26:36.199Z,1.30
2018-11-27T13:34:23.629Z,1.00
2018-11-27T13:36:57.267Z,0.80
2018-11-27T13:44:49.848Z,0.90
2018-11-27T13:47:26.570Z,1.27
2018-11-27T13:55:24.605Z,1.00
2018-11-27T13:57:55.995Z,0.87
2018-11-27T14:03:10.643Z,0.83
2018-11-27T14:05:36.439Z,1.17
2018-11-27T14:08:10.508Z,0.90
2018-11-27T14:10:51.786Z,1.00
2018-11-27T14:29:09.511Z,1.27
2018-11-27T14:31:40.125Z,1.10
2018-11-27T14:49:48.679Z,1.57
2018-11-27T14:52:19.102Z,1.70
2018-11-27T14:57:30.562Z,2.27
2018-11-27T15:00:01.717Z,2.10
2018-11-27T15:05:11.488Z,2.20
2018-11-27T15:07:45.488Z,1.83
2018-11-27T15:15:40.554Z,1.80
2018-11-27T15:18:11.673Z,2.40
2018-11-27T15:26:10.668Z,3.60
2018-11-27T15:28:45.387Z,5.33
2018-11-27T15:33:59.983Z,3.10
2018-11-27T15:39:13.733Z,4.30
2018-11-27T15:44:29.883Z,4.20
2018-11-27T15:47:03.303Z,3.67
2018-11-27T15:54:49.418Z,3.30
2018-11-27T15:57:22.828Z,3.23
2018-11-27T15:59:56.383Z,2.93
2018-11-27T16:02:26.893Z,3.20
2018-11-27T16:05:03.233Z,3.13
2018-11-27T16:07:36.553Z,3.07
2018-11-27T16:20:50.109Z,2.70
2018-11-27T16:23:23.804Z,3.03
2018-11-27T16:26:00.573Z,3.03
2018-11-27T16:28:31.129Z,3.70
2018-11-27T16:31:10.293Z,3.00
2018-11-27T16:33:42.830Z,2.67
2018-11-27T16:36:13.219Z,2.80
2018-11-27T16:38:44.728Z,2.50
2018-11-27T16:43:57.564Z,3.40
2018-11-27T16:46:29.685Z,2.57
2018-11-27T16:49:02.768Z,3.27
2018-11-27T16:51:34.794Z,3.13
2018-11-27T16:54:05.219Z,2.90
2018-11-27T16:56:35.644Z,2.60
2018-11-27T17:01:44.779Z,3.00
2018-11-27T17:04:15.396Z,2.57
2018-11-27T17:09:24.300Z,2.97
2018-11-27T17:11:55.444Z,3.70
2018-11-27T17:14:27.989Z,2.60
2018-11-27T17:17:03.844Z,2.90
2018-11-27T17:19:47.909Z,3.57
2018-11-27T17:22:20.585Z,2.97
2018-11-27T17:27:28.569Z,3.33
2018-11-27T17:29:59.544Z,2.80
2018-11-27T17:37:43.923Z,3.50
2018-11-27T17:40:16.234Z,3.47
2018-11-27T17:48:01.669Z,4.10
2018-11-27T17:50:32.212Z,3.70
2018-11-27T17:58:22.906Z,3.40
2018-11-27T18:00:53.159Z,3.90
2018-11-27T18:03:23.709Z,3.40
2018-11-27T18:05:55.064Z,3.63
2018-11-27T18:08:25.549Z,3.23
2018-11-27T18:10:57.110Z,3.63
2018-11-27T18:13:29.297Z,3.77
2018-11-27T18:15:59.645Z,4.53
2018-11-27T18:18:31.103Z,3.50
2018-11-27T18:21:02.409Z,4.20
2018-11-27T18:23:39.566Z,4.00
2018-11-27T18:26:10.865Z,3.80
2018-11-27T18:28:43.719Z,3.67
2018-11-27T18:31:13.955Z,3.70
2018-11-27T18:33:46.779Z,3.83
2018-11-27T18:36:17.823Z,3.60
2018-11-27T18:38:55.745Z,3.50
2018-11-27T18:41:26.014Z,4.17
2018-11-27T18:44:01.285Z,3.27
2018-11-27T18:46:31.524Z,3.60
2018-11-27T18:49:05.462Z,4.23
2018-11-27T18:51:43.671Z,3.73
2018-11-27T18:54:14.459Z,4.00
2018-11-27T18:56:46.306Z,3.43
2018-11-27T18:59:18.448Z,3.93
2018-11-27T19:01:49.113Z,3.00
2018-11-27T19:04:20.079Z,3.20
2018-11-27T19:06:51.429Z,4.13
2018-11-27T19:09:23.114Z,3.77
2018-11-27T19:11:54.599Z,3.30
2018-11-27T19:14:25.624Z,3.40
2018-11-27T19:16:57.633Z,3.23
2018-11-27T19:19:28.928Z,3.63
2018-11-27T19:22:00.419Z,4.10
2018-11-27T19:24:32.058Z,3.70
2018-11-27T19:27:06.493Z,3.43
2018-11-27T19:29:36.948Z,3.27
2018-11-27T19:32:07.444Z,3.57
2018-11-27T19:34:37.973Z,3.47
2018-11-27T19:37:08.843Z,3.43
2018-11-27T19:39:40.118Z,3.60
2018-11-27T19:42:11.060Z,3.67
2018-11-27T19:44:42.923Z,2.93
2018-11-27T19:47:14.888Z,3.60
2018-11-27T19:49:47.259Z,3.33
2018-11-27T19:52:20.039Z,2.87
2018-11-27T19:54:54.564Z,3.23
2018-11-27T19:57:26.875Z,3.60
2018-11-27T19:59:59.373Z,2.90
2018-11-27T20:02:31.529Z,3.30
2018-11-27T20:05:01.933Z,3.13
2018-11-27T20:07:33.208Z,3.27
2018-11-27T20:10:04.258Z,3.17
2018-11-27T20:12:35.563Z,2.90
2018-11-27T20:15:07.528Z,3.20
2018-11-27T20:17:38.348Z,2.97
2018-11-27T20:20:10.678Z,3.73
2018-11-27T20:22:41.644Z,3.30
2018-11-27T20:25:14.534Z,2.93
2018-11-27T20:27:44.817Z,3.63
2018-11-27T20:30:18.801Z,2.87
2018-11-27T20:33:02.149Z,3.63
2018-11-27T20:35:33.750Z,3.67
2018-11-27T20:38:06.533Z,3.20
2018-11-27T20:40:37.029Z,3.03
2018-11-27T20:43:07.594Z,4.13
2018-11-27T20:47:47.139Z,3.17
2018-11-27T20:50:21.693Z,3.20
2018-11-27T20:52:52.958Z,3.20
2018-11-27T20:55:23.634Z,3.00
2018-11-27T20:57:56.276Z,3.47
2018-11-27T21:00:28.413Z,3.23
2018-11-27T21:03:02.838Z,3.07
2018-11-27T21:05:34.072Z,3.03
2018-11-27T21:08:04.876Z,3.13
2018-11-27T21:10:35.558Z,3.70
2018-11-27T21:13:07.803Z,3.13
2018-11-27T21:15:39.062Z,3.27
2018-11-27T21:18:11.533Z,3.67
2018-11-27T21:20:43.118Z,3.13
2018-11-27T21:23:17.069Z,2.70
2018-11-27T21:25:47.751Z,3.23
2018-11-27T21:28:20.166Z,2.93
2018-11-27T21:30:52.868Z,3.07
2018-11-27T21:33:27.067Z,2.97
2018-11-27T21:35:59.050Z,2.93
2018-11-27T21:38:30.484Z,2.80
2018-11-27T21:41:03.373Z,3.37
2018-11-27T21:43:33.967Z,2.87
2018-11-27T21:46:06.083Z,2.80
2018-11-27T21:48:36.644Z,2.60
2018-11-27T21:51:07.033Z,2.87
2018-11-27T21:53:39.218Z,3.23
2018-11-27T21:56:09.763Z,3.43
2018-11-27T21:58:40.285Z,2.50
2018-11-27T22:01:10.557Z,3.07
2018-11-27T22:03:40.988Z,2.73
2018-11-27T22:06:11.223Z,2.90
2018-11-27T22:08:49.557Z,2.70
2018-11-27T22:11:20.313Z,2.73
2018-11-27T22:13:51.793Z,2.93
2018-11-27T22:16:25.114Z,2.90
2018-11-27T22:18:56.472Z,2.97
2018-11-27T22:21:26.802Z,2.77
2018-11-27T22:23:57.339Z,2.90
2018-11-27T22:26:28.697Z,2.87
2018-11-27T22:29:00.177Z,2.10
2018-11-27T22:31:30.594Z,2.43
2018-11-27T22:34:01.622Z,2.20
2018-11-27T22:36:33.343Z,2.40
2018-11-27T22:39:05.469Z,2.30
2018-11-27T22:41:36.568Z,2.70
2018-11-27T22:44:08.228Z,2.23
2018-11-27T22:46:38.638Z,1.97
2018-11-27T22:49:08.993Z,2.60
2018-11-27T22:51:41.479Z,1.90
2018-11-27T22:54:11.877Z,2.10
2018-11-27T22:56:42.272Z,1.80
2018-11-27T22:59:15.592Z,1.80
2018-11-27T23:01:45.942Z,1.93
2018-11-27T23:04:16.397Z,1.70
2018-11-27T23:06:46.638Z,1.87
2018-11-27T23:09:18.279Z,1.40
2018-11-27T23:11:52.917Z,1.67
2018-11-27T23:14:23.913Z,1.83
2018-11-27T23:16:54.323Z,1.43
2018-11-27T23:19:24.772Z,1.70
2018-11-27T23:21:57.333Z,1.43
2018-11-27T23:24:28.384Z,2.10
2018-11-27T23:26:59.337Z,1.93
2018-11-27T23:29:33.217Z,1.37
2018-11-27T23:32:05.806Z,1.60
2018-11-27T23:34:40.412Z,1.83
2018-11-27T23:37:11.512Z,1.77
2018-11-27T23:39:41.777Z,1.63
2018-11-27T23:42:12.142Z,1.90
2018-11-27T23:44:42.483Z,2.10
2018-11-27T23:47:13.007Z,2.00
2018-11-27T23:49:43.397Z,1.93
2018-11-27T23:52:13.862Z,1.60
2018-11-27T23:54:44.412Z,2.33
2018-11-27T23:57:14.977Z,1.90
2018-11-27T23:59:46.632Z,1.90
